Tailai, China
Current Conditions -  °F | °C
As of 3:00 PM on Monday 22 Dec 2014 (Local Time) from ZYHB Reporting Station
Clear Clear  
Wind Chill: -9°   Ceiling: Unl
Heat Index:   Visibility: 4mi
Dew Point: -6°   Wind: 7mph
Humidity: 66%   Direction: 230°SW
Pressure: 30.12"   Gusts: NA
Location:  46.39°N, 123.41°E
Report Text: ZYHB 220700Z 23003MPS 6000 NSC M16/M21 Q1020 NOSIG
Loading
Personal Weather Stations






























Interactive Weather Map New forecast layout! Learn more

10-Day Weather Forecast

Advertisements
Track Severe Weather on mobile